Catania, Italy

8:23 PM CET on December 20, 2014 (GMT +0100)
Zona Industriale - Catania | Change Station
CLOSE
Current Station
Personal Weather Station
Location: (*Meteosicilia*), Sicily
Elevation: 60 ft
Nearby Weather Stations

Elev 60 ft 37.45 °N, 15.04 °E | Updated 0 second ago

Scattered Clouds
Scattered Clouds
54.5 °F
Feels Like 54.5 °F
N
0.0
Wind Variable Wind from North
Gusts 1.0 mph

Today
High -- | Low -- °F
--% Chance of Precip.
Yesterday
High -- | Low -- °F
Precip. -- in
7:09 AM 4:44 PM
Waning Crescent, 2% visible
Pressure 30.21 in
Visibility 6.2 miles
Clouds Few 2500 ft
Scattered Clouds 6000 ft
Dew Point 49 °F
Humidity 81%
Rainfall 0.00 in
Snow Depth Not available.
UV 0 out of 12
Pollen Not available.
Air Quality Not available.
Flu Activity Not available.
METAR LICZ 201855Z 08002KT 9999 FEW025 SCT060 13/13 Q1023 RMK BKN VIS MIN 9999 WIND THR28 07002KT A3023 BLU

More Conditions Fewer Conditions

Pressure 30.21 in
Visibility 6.2 miles
Clouds Few 2500 ft
Scattered Clouds 6000 ft
Dew Point 49 °F
Humidity 81%
Rainfall 0.00 in
Snow Depth Not available.
UV 0 out of 12
Pollen Not available.
Air Quality Not available.
Flu Activity Not available.
METAR LICZ 201855Z 08002KT 9999 FEW025 SCT060 13/13 Q1023 RMK BKN VIS MIN 9999 WIND THR28 07002KT A3023 BLU

More Conditions Fewer Conditions

10-Day Weather Forecast

Almanac

Astronomy

Dec. 20, 2014 Rise Set
Actual Time
Civil Twilight
Nautical Twilight
Astronomical Twilight
Moon
Length of Visible Light
Length of Day
Tomorrow will be .
, % of the Moon is Illuminated

Today's Extremes

Country Highs Country Lows

Community

WunderPhotos

Upload Photos

1,779,256 photos uploaded!

WunderBlogs® & News

Nearby

Air Quality

  Air Quality AQ Index Pollutant
Not available.

Snow Depth

Station Depth Elevation

Earthquake Activity

City Distance Mag. Time & Date
Minimum magnitude displayed is 2.5.

Coastal Water Temperatures

Place Temperature

Nearby Weather Stations